Time;durP1;ratioP1;P1;durP2;ratioP2;P2;SDS_P1;SDS_P2;PMS_P1;PMS_P2;Temp;Humidity;BMP_temperature;BMP_pressure;BME280_temperature;BME280_humidity;BME280_pressure;Samples;Min_cycle;Max_cycle;Signal;HPM_P1;HPM_P2
2021/12/28 00:02:01;;;;;;;;;;;18.60;57.30;;;;;;5160625;27;20378;-77
2021/12/28 00:04:26;;;;;;;;;;;18.60;57.30;;;;;;5160354;27;19949;-78
2021/12/28 00:06:52;;;;;;;;;;;18.70;57.60;;;;;;5154527;27;19924;-77
2021/12/28 00:09:21;;;;;;;;;;;18.60;57.70;;;;;;5130808;27;20320;-78
2021/12/28 00:11:47;;;;;;;;;;;18.60;57.40;;;;;;5127989;27;20023;-76
2021/12/28 00:14:13;;;;;;;;;;;18.60;57.50;;;;;;5142166;27;19972;-75
2021/12/28 00:19:23;;;;;;;;;;;18.60;57.60;;;;;;5159184;27;19976;-76
2021/12/28 00:21:54;;;;;;;;;;;18.60;57.50;;;;;;5159738;27;19927;-79
2021/12/28 00:24:20;;;;;;;;;;;18.60;57.60;;;;;;5138769;27;20398;-79
2021/12/28 00:26:45;;;;;;;;;;;18.60;57.80;;;;;;5159925;27;19923;-79
2021/12/28 00:29:11;;;;;;;;;;;18.60;57.60;;;;;;5160146;27;20556;-76
2021/12/28 00:31:36;;;;;;;;;;;18.60;57.60;;;;;;5160611;27;19923;-77
2021/12/28 00:34:02;;;;;;;;;;;18.60;57.80;;;;;;5162737;27;20368;-77
2021/12/28 00:36:28;;;;;;;;;;;18.60;57.70;;;;;;5162029;27;20014;-77
2021/12/28 00:38:53;;;;;;;;;;;18.30;57.50;;;;;;5160775;27;19930;-76
2021/12/28 00:41:20;;;;;;;;;;;18.50;57.50;;;;;;5159286;27;19924;-75
2021/12/28 00:43:45;;;;;;;;;;;18.50;57.60;;;;;;5159725;27;19929;-76
2021/12/28 00:46:11;;;;;;;;;;;18.50;57.60;;;;;;5158935;27;19983;-76
2021/12/28 00:48:37;;;;;;;;;;;18.50;57.90;;;;;;5158727;27;19978;-77
2021/12/28 00:51:03;;;;;;;;;;;18.50;57.90;;;;;;5137807;27;20375;-77
2021/12/28 00:53:29;;;;;;;;;;;18.50;57.80;;;;;;5158785;27;19930;-76
2021/12/28 00:55:55;;;;;;;;;;;18.50;58.40;;;;;;5138949;27;20371;-74
2021/12/28 00:58:21;;;;;;;;;;;18.50;57.70;;;;;;5160586;27;19976;-75
2021/12/28 01:00:47;;;;;;;;;;;18.50;58.00;;;;;;5159965;27;19924;-77
2021/12/28 01:03:13;;;;;;;;;;;18.50;57.70;;;;;;5160518;27;19930;-76
2021/12/28 01:05:38;;;;;;;;;;;18.50;57.80;;;;;;5138845;27;19967;-78
2021/12/28 01:08:05;;;;;;;;;;;18.50;57.90;;;;;;5159774;27;20014;-78
2021/12/28 01:10:34;;;;;;;;;;;18.50;57.80;;;;;;5159502;27;19927;-77
2021/12/28 01:13:00;;;;;;;;;;;18.40;57.70;;;;;;5159522;27;20006;-78
2021/12/28 01:15:27;;;;;;;;;;;18.50;57.70;;;;;;5138479;27;20022;-78
2021/12/28 01:17:52;;;;;;;;;;;18.50;57.80;;;;;;5161682;27;19923;-77
2021/12/28 01:20:18;;;;;;;;;;;18.50;57.90;;;;;;5161546;27;19923;-77
2021/12/28 01:22:44;;;;;;;;;;;18.50;57.80;;;;;;5162214;27;19973;-78
2021/12/28 01:25:11;;;;;;;;;;;18.50;57.80;;;;;;5142740;27;20006;-78
2021/12/28 01:27:37;;;;;;;;;;;18.40;57.70;;;;;;5162036;27;19930;-77
2021/12/28 01:30:08;;;;;;;;;;;18.40;57.70;;;;;;5162101;27;20014;-77
2021/12/28 01:32:34;;;;;;;;;;;18.10;57.50;;;;;;5161439;27;19928;-77
2021/12/28 01:34:59;;;;;;;;;;;18.40;57.70;;;;;;5161237;27;19931;-77
2021/12/28 01:37:25;;;;;;;;;;;18.40;57.70;;;;;;5161276;27;19923;-75
2021/12/28 01:39:51;;;;;;;;;;;18.40;57.70;;;;;;5162075;27;19923;-76
2021/12/28 01:42:16;;;;;;;;;;;18.40;57.70;;;;;;5161865;27;19928;-75
2021/12/28 01:44:42;;;;;;;;;;;18.40;57.70;;;;;;5161065;27;19927;-77
2021/12/28 01:47:12;;;;;;;;;;;16.60;57.10;;;;;;5160938;27;20441;-78
2021/12/28 01:49:38;;;;;;;;;;;18.60;57.70;;;;;;5161517;27;19924;-77
2021/12/28 01:52:06;;;;;;;;;;;18.40;57.70;;;;;;5161496;27;19959;-78
2021/12/28 01:54:32;;;;;;;;;;;18.40;57.70;;;;;;5142456;27;19923;-77
2021/12/28 01:56:57;;;;;;;;;;;18.40;57.80;;;;;;5161360;27;19923;-77
2021/12/28 01:59:23;;;;;;;;;;;18.50;57.80;;;;;;5161461;27;19931;-80
2021/12/28 02:01:49;;;;;;;;;;;18.40;57.80;;;;;;5161346;27;20296;-80
2021/12/28 02:04:19;;;;;;;;;;;18.40;57.70;;;;;;5162689;27;19931;-78
2021/12/28 02:06:45;;;;;;;;;;;18.40;57.60;;;;;;5146342;27;19923;-79
2021/12/28 02:09:10;;;;;;;;;;;18.40;57.70;;;;;;5164881;27;19930;-79
2021/12/28 02:11:36;;;;;;;;;;;18.40;57.60;;;;;;5164913;27;19923;-79
2021/12/28 02:14:05;;;;;;;;;;;18.40;57.60;;;;;;5165033;27;20303;-79
2021/12/28 02:16:30;;;;;;;;;;;18.40;57.70;;;;;;5138281;27;20030;-79
2021/12/28 02:18:56;;;;;;;;;;;18.40;57.50;;;;;;5143710;27;20053;-79
2021/12/28 02:21:21;;;;;;;;;;;18.40;57.50;;;;;;5143917;27;19924;-79
2021/12/28 02:23:47;;;;;;;;;;;18.40;57.50;;;;;;5143780;27;19946;-79
2021/12/28 02:26:13;;;;;;;;;;;18.40;57.40;;;;;;5143735;27;19924;-78
2021/12/28 02:28:38;;;;;;;;;;;18.40;57.50;;;;;;5144184;27;19930;-79
2021/12/28 02:31:04;;;;;;;;;;;18.40;57.50;;;;;;5143807;27;19955;-79
2021/12/28 02:33:30;;;;;;;;;;;18.40;57.50;;;;;;5143917;27;19924;-79
2021/12/28 02:35:58;;;;;;;;;;;18.40;57.40;;;;;;5143486;27;19931;-79
2021/12/28 02:38:24;;;;;;;;;;;18.40;57.40;;;;;;5143901;27;20032;-79
2021/12/28 02:40:50;;;;;;;;;;;18.30;57.80;;;;;;5143704;27;19993;-76
2021/12/28 02:43:16;;;;;;;;;;;18.30;57.40;;;;;;5143760;27;20012;-79
2021/12/28 02:45:50;;;;;;;;;;;18.40;57.40;;;;;;5143522;27;19924;-79
2021/12/28 02:48:16;;;;;;;;;;;18.30;57.30;;;;;;5143333;27;20396;-79
2021/12/28 02:50:43;;;;;;;;;;;18.30;57.20;;;;;;5143711;27;19924;-79
2021/12/28 02:53:10;;;;;;;;;;;18.30;57.30;;;;;;5143397;27;19924;-79
2021/12/28 02:55:37;;;;;;;;;;;18.30;57.20;;;;;;5143575;27;19930;-80
2021/12/28 02:58:04;;;;;;;;;;;18.40;57.30;;;;;;5143276;27;19930;-79
2021/12/28 03:00:30;;;;;;;;;;;18.40;57.20;;;;;;5143102;27;19924;-78
2021/12/28 03:02:55;;;;;;;;;;;18.30;57.10;;;;;;5124502;27;19930;-78
2021/12/28 03:05:21;;;;;;;;;;;18.30;57.10;;;;;;5142775;27;19924;-78
2021/12/28 03:07:47;;;;;;;;;;;18.30;57.10;;;;;;5139922;27;19935;-78
2021/12/28 03:10:12;;;;;;;;;;;18.30;56.90;;;;;;5142638;27;19967;-79
2021/12/28 03:12:38;;;;;;;;;;;18.30;56.90;;;;;;5142732;27;20437;-78
2021/12/28 03:15:03;;;;;;;;;;;18.40;57.00;;;;;;5141783;27;20314;-78
2021/12/28 03:17:29;;;;;;;;;;;18.30;56.80;;;;;;5141418;27;19946;-78
2021/12/28 03:19:54;;;;;;;;;;;18.40;56.80;;;;;;5142763;27;19931;-78
2021/12/28 03:22:20;;;;;;;;;;;18.30;56.70;;;;;;5141851;27;19986;-77
2021/12/28 03:24:46;;;;;;;;;;;18.30;56.70;;;;;;5142139;27;19928;-79
2021/12/28 03:27:11;;;;;;;;;;;18.40;56.70;;;;;;5140817;27;19924;-78
2021/12/28 03:29:37;;;;;;;;;;;18.30;56.60;;;;;;5141778;27;19924;-77
2021/12/28 03:32:02;;;;;;;;;;;18.30;56.60;;;;;;5141183;27;19924;-77
2021/12/28 03:34:28;;;;;;;;;;;18.30;56.50;;;;;;5141781;27;19974;-76
2021/12/28 03:36:53;;;;;;;;;;;18.30;56.60;;;;;;5142031;27;19923;-77
2021/12/28 03:39:19;;;;;;;;;;;18.40;56.70;;;;;;5141497;27;20380;-77
2021/12/28 03:41:44;;;;;;;;;;;18.30;56.50;;;;;;5142449;27;20291;-76
2021/12/28 03:44:10;;;;;;;;;;;18.30;56.50;;;;;;5142493;27;19935;-77
2021/12/28 03:46:35;;;;;;;;;;;18.30;56.50;;;;;;5141897;27;19927;-76
2021/12/28 03:49:02;;;;;;;;;;;18.30;56.40;;;;;;5141932;27;19953;-76
2021/12/28 03:51:27;;;;;;;;;;;18.30;56.40;;;;;;5141904;27;19957;-77
2021/12/28 03:53:53;;;;;;;;;;;18.30;56.40;;;;;;5142368;27;19966;-77
2021/12/28 03:56:19;;;;;;;;;;;18.30;56.50;;;;;;5141597;27;19975;-77
2021/12/28 03:58:45;;;;;;;;;;;18.30;56.50;;;;;;5142232;27;19976;-76
2021/12/28 04:01:12;;;;;;;;;;;18.30;56.40;;;;;;5141566;27;19928;-76
2021/12/28 04:03:38;;;;;;;;;;;18.30;56.50;;;;;;5141623;27;19997;-76
2021/12/28 04:06:08;;;;;;;;;;;18.30;56.40;;;;;;5123405;27;19928;-76
2021/12/28 04:08:34;;;;;;;;;;;18.30;56.40;;;;;;5141240;27;19930;-76
2021/12/28 04:11:14;;;;;;;;;;;18.30;56.40;;;;;;5141945;27;19923;-76
2021/12/28 04:13:41;;;;;;;;;;;18.30;56.40;;;;;;5140743;27;19996;-76
2021/12/28 04:16:06;;;;;;;;;;;18.30;56.50;;;;;;5139918;27;20545;-75
2021/12/28 04:18:32;;;;;;;;;;;18.30;56.50;;;;;;5141601;27;19924;-75
2021/12/28 04:20:58;;;;;;;;;;;18.30;56.60;;;;;;5141024;27;19924;-76
2021/12/28 04:23:23;;;;;;;;;;;18.30;56.70;;;;;;5141073;27;19930;-76
2021/12/28 04:25:49;;;;;;;;;;;18.30;56.60;;;;;;5141563;27;20551;-76
2021/12/28 04:28:14;;;;;;;;;;;18.30;56.60;;;;;;5140852;27;19924;-76
2021/12/28 04:30:40;;;;;;;;;;;18.30;56.70;;;;;;5141767;27;19924;-77
2021/12/28 04:33:05;;;;;;;;;;;18.30;56.60;;;;;;5140455;27;19968;-77
2021/12/28 04:35:31;;;;;;;;;;;18.30;56.70;;;;;;5141137;27;20387;-77
2021/12/28 04:37:57;;;;;;;;;;;18.30;56.60;;;;;;5140915;27;19923;-77
2021/12/28 04:40:22;;;;;;;;;;;18.30;56.60;;;;;;5140385;27;19924;-77
2021/12/28 04:42:48;;;;;;;;;;;18.30;56.50;;;;;;5139722;27;19924;-77
2021/12/28 04:45:15;;;;;;;;;;;18.30;56.50;;;;;;5141306;27;19969;-78
2021/12/28 04:47:40;;;;;;;;;;;18.30;56.50;;;;;;5140739;27;19932;-76
2021/12/28 04:50:07;;;;;;;;;;;18.30;56.40;;;;;;5140566;27;20273;-77
2021/12/28 04:52:36;;;;;;;;;;;18.30;56.50;;;;;;5121904;27;19924;-78
2021/12/28 04:55:03;;;;;;;;;;;18.30;56.40;;;;;;5141030;27;19927;-78
2021/12/28 04:57:28;;;;;;;;;;;18.30;56.50;;;;;;5140734;27;19924;-77
2021/12/28 04:59:54;;;;;;;;;;;18.30;56.40;;;;;;5140107;27;20061;-77
2021/12/28 05:02:19;;;;;;;;;;;18.30;56.60;;;;;;5141284;27;19924;-77
2021/12/28 05:04:45;;;;;;;;;;;18.30;56.50;;;;;;5140683;27;19930;-78
2021/12/28 05:07:10;;;;;;;;;;;18.30;56.40;;;;;;5139592;27;19928;-77
2021/12/28 05:09:36;;;;;;;;;;;18.30;56.40;;;;;;5141009;27;19981;-77
2021/12/28 05:12:02;;;;;;;;;;;18.30;56.40;;;;;;5141035;27;19924;-76
2021/12/28 05:14:27;;;;;;;;;;;18.30;56.30;;;;;;5140243;27;19924;-77
2021/12/28 05:16:53;;;;;;;;;;;18.30;56.20;;;;;;5140764;27;20357;-77
2021/12/28 05:19:18;;;;;;;;;;;18.20;56.10;;;;;;5140610;27;19923;-77
2021/12/28 05:21:44;;;;;;;;;;;18.30;56.10;;;;;;5121077;27;20334;-77
2021/12/28 05:24:10;;;;;;;;;;;18.30;56.10;;;;;;5139581;27;19930;-78
2021/12/28 05:26:35;;;;;;;;;;;18.30;55.90;;;;;;5140289;27;19924;-77
2021/12/28 05:29:01;;;;;;;;;;;18.20;55.80;;;;;;5141350;27;19973;-77
2021/12/28 05:31:27;;;;;;;;;;;18.20;55.80;;;;;;5121619;27;19924;-77
2021/12/28 05:33:53;;;;;;;;;;;18.30;55.70;;;;;;5139680;27;20396;-77
2021/12/28 05:36:19;;;;;;;;;;;18.20;55.60;;;;;;5139650;27;19977;-77
2021/12/28 05:38:45;;;;;;;;;;;18.30;56.10;;;;;;5139138;27;19924;-77
2021/12/28 05:41:10;;;;;;;;;;;18.30;55.60;;;;;;5143489;27;20299;-77
2021/12/28 05:43:36;;;;;;;;;;;18.20;55.40;;;;;;5156335;27;20040;-80
2021/12/28 05:46:02;;;;;;;;;;;18.30;55.40;;;;;;5160013;27;20260;-75
2021/12/28 05:48:27;;;;;;;;;;;18.20;55.20;;;;;;5159015;27;20380;-76
2021/12/28 05:50:53;;;;;;;;;;;18.20;55.20;;;;;;5158533;27;20034;-75
2021/12/28 05:53:18;;;;;;;;;;;18.30;55.20;;;;;;5160389;27;20261;-75
2021/12/28 05:55:44;;;;;;;;;;;18.30;55.20;;;;;;5160124;27;19930;-75
2021/12/28 05:58:10;;;;;;;;;;;18.10;55.10;;;;;;5160482;27;19927;-76
2021/12/28 06:00:36;;;;;;;;;;;18.20;55.10;;;;;;5159782;27;19923;-75
2021/12/28 06:03:02;;;;;;;;;;;18.20;54.90;;;;;;5161186;27;20345;-77
2021/12/28 06:05:27;;;;;;;;;;;18.20;54.90;;;;;;5160599;27;19930;-76
2021/12/28 06:07:53;;;;;;;;;;;18.20;54.80;;;;;;5160936;27;20010;-76
2021/12/28 06:10:18;;;;;;;;;;;18.20;54.80;;;;;;5136340;27;19928;-76
2021/12/28 06:12:44;;;;;;;;;;;18.20;54.70;;;;;;5149269;27;19977;-82
2021/12/28 06:15:10;;;;;;;;;;;18.20;54.70;;;;;;5154980;27;19928;-80
2021/12/28 06:17:36;;;;;;;;;;;18.20;54.90;;;;;;5159319;27;19923;-88
2021/12/28 06:20:02;;;;;;;;;;;18.20;54.80;;;;;;5151275;27;19923;-78
2021/12/28 06:22:28;;;;;;;;;;;18.20;55.10;;;;;;5150451;27;20447;-82
2021/12/28 06:24:53;;;;;;;;;;;18.20;55.00;;;;;;5157003;27;20302;-87
2021/12/28 06:27:19;;;;;;;;;;;18.20;55.20;;;;;;5140531;27;20403;-89
2021/12/28 06:29:45;;;;;;;;;;;18.20;55.30;;;;;;5143211;27;19924;-89
2021/12/28 06:32:11;;;;;;;;;;;18.20;55.40;;;;;;5140977;27;20026;-89
2021/12/28 06:34:37;;;;;;;;;;;18.20;55.40;;;;;;5143945;27;19988;-75
2021/12/28 06:37:02;;;;;;;;;;;18.20;55.60;;;;;;5156575;27;19928;-82
2021/12/28 06:39:28;;;;;;;;;;;18.20;55.50;;;;;;5155877;27;19923;-84
2021/12/28 06:41:54;;;;;;;;;;;18.20;55.60;;;;;;5153706;27;20390;-82
2021/12/28 06:44:19;;;;;;;;;;;18.20;55.70;;;;;;5139982;27;19963;-86
2021/12/28 06:46:45;;;;;;;;;;;18.20;55.70;;;;;;5149219;27;19933;-86
2021/12/28 06:49:10;;;;;;;;;;;18.20;55.60;;;;;;5160021;27;19928;-85
2021/12/28 06:51:36;;;;;;;;;;;18.20;55.80;;;;;;5161530;27;19976;-79
2021/12/28 06:54:02;;;;;;;;;;;18.20;55.80;;;;;;5163050;27;19930;-81
2021/12/28 06:56:27;;;;;;;;;;;18.20;55.80;;;;;;5170704;27;19951;-86
2021/12/28 06:58:53;;;;;;;;;;;18.20;55.80;;;;;;5162619;27;20079;-81
2021/12/28 07:01:18;;;;;;;;;;;18.10;55.80;;;;;;5154992;27;19993;-85
2021/12/28 07:03:44;;;;;;;;;;;18.20;56.10;;;;;;5166214;27;20361;-86
2021/12/28 07:06:10;;;;;;;;;;;18.20;55.90;;;;;;5153598;27;19928;-82
2021/12/28 07:08:36;;;;;;;;;;;18.10;56.00;;;;;;5133840;27;20472;-83
2021/12/28 07:11:02;;;;;;;;;;;18.10;55.90;;;;;;5160137;27;19932;-79
2021/12/28 07:13:27;;;;;;;;;;;18.20;56.00;;;;;;5155624;27;19931;-82
2021/12/28 07:15:53;;;;;;;;;;;18.20;55.90;;;;;;5154162;27;19927;-86
2021/12/28 07:18:19;;;;;;;;;;;18.10;56.00;;;;;;5158331;27;19974;-77
2021/12/28 07:20:44;;;;;;;;;;;18.20;56.10;;;;;;5151114;27;19950;-87
2021/12/28 07:23:10;;;;;;;;;;;18.10;55.90;;;;;;5158782;27;19976;-87
2021/12/28 07:25:35;;;;;;;;;;;18.10;55.90;;;;;;5146117;27;19928;-85
2021/12/28 07:28:01;;;;;;;;;;;18.20;56.10;;;;;;5151554;27;19983;-78
2021/12/28 07:30:26;;;;;;;;;;;18.10;55.90;;;;;;5153407;27;20089;-80
2021/12/28 07:32:52;;;;;;;;;;;18.10;55.70;;;;;;5160502;27;19928;-83
2021/12/28 07:35:18;;;;;;;;;;;18.10;55.90;;;;;;5158635;27;20344;-89
2021/12/28 07:37:43;;;;;;;;;;;18.10;56.10;;;;;;5164829;27;19932;-82
2021/12/28 07:40:09;;;;;;;;;;;18.10;56.10;;;;;;5153670;27;20050;-80
2021/12/28 07:42:35;;;;;;;;;;;18.10;56.00;;;;;;5161522;27;19927;-79
2021/12/28 07:45:04;;;;;;;;;;;18.00;52.90;;;;;;4958398;27;19970;-78
2021/12/28 07:47:32;;;;;;;;;;;17.40;51.30;;;;;;4936600;27;20176;-75
2021/12/28 07:49:58;;;;;;;;;;;16.80;50.90;;;;;;4940228;27;20050;-77
2021/12/28 07:52:26;;;;;;;;;;;16.40;50.60;;;;;;4946662;27;20363;-76
2021/12/28 07:54:53;;;;;;;;;;;16.20;49.80;;;;;;4905061;27;20311;-76
2021/12/28 07:57:21;;;;;;;;;;;16.00;50.00;;;;;;4875569;27;20275;-77
2021/12/28 07:59:49;;;;;;;;;;;15.60;50.00;;;;;;4837615;27;20282;-78
2021/12/28 08:02:17;;;;;;;;;;;16.90;50.40;;;;;;4841561;27;20284;-77
2021/12/28 08:04:43;;;;;;;;;;;16.70;50.90;;;;;;4993695;27;19950;-84
2021/12/28 08:07:08;;;;;;;;;;;15.70;50.50;;;;;;5124680;27;19928;-79
2021/12/28 08:09:34;;;;;;;;;;;15.60;50.20;;;;;;5140999;27;19924;-83
2021/12/28 08:11:59;;;;;;;;;;;15.50;50.30;;;;;;5139161;27;19928;-81
2021/12/28 08:14:25;;;;;;;;;;;15.50;50.20;;;;;;5142837;27;19934;-82
2021/12/28 08:16:52;;;;;;;;;;;15.30;50.20;;;;;;5143661;27;26711;-82
2021/12/28 08:19:18;;;;;;;;;;;15.30;50.70;;;;;;5154037;27;20345;-88
2021/12/28 08:21:44;;;;;;;;;;;15.30;50.90;;;;;;5159734;27;19924;-83
2021/12/28 08:24:09;;;;;;;;;;;15.40;50.80;;;;;;5145893;27;19934;-81
2021/12/28 08:26:35;;;;;;;;;;;15.40;50.30;;;;;;5147561;27;19927;-83
2021/12/28 08:29:00;;;;;;;;;;;15.40;50.40;;;;;;5150422;27;19939;-87
2021/12/28 08:31:26;;;;;;;;;;;15.50;50.40;;;;;;5148521;27;19928;-81
2021/12/28 08:33:51;;;;;;;;;;;15.50;50.20;;;;;;5145582;27;20399;-84
2021/12/28 08:36:17;;;;;;;;;;;15.50;50.20;;;;;;5149909;27;19996;-84
2021/12/28 08:38:43;;;;;;;;;;;15.40;50.20;;;;;;5145545;27;20124;-84
2021/12/28 08:41:09;;;;;;;;;;;15.30;50.30;;;;;;5141722;27;19931;-82
2021/12/28 08:43:35;;;;;;;;;;;15.30;50.40;;;;;;5140976;27;19924;-83
2021/12/28 08:46:00;;;;;;;;;;;15.20;50.40;;;;;;5142026;27;19988;-78
2021/12/28 08:48:26;;;;;;;;;;;15.20;50.80;;;;;;5141315;27;19977;-80
2021/12/28 08:50:52;;;;;;;;;;;15.10;51.00;;;;;;5162510;27;19927;-79
2021/12/28 08:53:17;;;;;;;;;;;15.20;50.80;;;;;;5162365;27;19949;-77
2021/12/28 08:55:43;;;;;;;;;;;15.30;50.60;;;;;;5143162;27;19927;-78
2021/12/28 08:58:09;;;;;;;;;;;15.30;50.40;;;;;;5162109;27;19923;-78
2021/12/28 09:00:35;;;;;;;;;;;15.30;50.50;;;;;;5162021;27;19923;-79
2021/12/28 09:03:01;;;;;;;;;;;15.30;50.50;;;;;;5162030;27;19924;-79
2021/12/28 09:05:27;;;;;;;;;;;15.30;50.30;;;;;;5162773;27;19931;-79
2021/12/28 09:07:54;;;;;;;;;;;15.20;50.40;;;;;;5162464;27;19923;-92
2021/12/28 09:10:19;;;;;;;;;;;15.20;50.70;;;;;;5143485;27;20312;-90
2021/12/28 09:12:45;;;;;;;;;;;15.40;50.70;;;;;;5162026;27;19934;-86
2021/12/28 09:15:11;;;;;;;;;;;15.70;50.80;;;;;;5163051;27;20434;-86
2021/12/28 09:17:37;;;;;;;;;;;16.00;50.90;;;;;;5162568;27;19931;-91
2021/12/28 09:20:04;;;;;;;;;;;16.20;50.90;;;;;;5163315;27;19923;-91
2021/12/28 09:22:30;;;;;;;;;;;16.30;50.80;;;;;;5166187;27;19931;-88
2021/12/28 09:24:55;;;;;;;;;;;16.40;50.80;;;;;;5163156;27;20304;-88
2021/12/28 09:27:27;;;;;;;;;;;16.50;50.80;;;;;;5163379;27;19970;-90
2021/12/28 09:29:52;;;;;;;;;;;17.60;51.30;;;;;;5163073;27;20025;-89
2021/12/28 09:32:18;;;;;;;;;;;16.70;50.90;;;;;;5162188;27;20467;-89
2021/12/28 09:34:45;;;;;;;;;;;16.80;50.90;;;;;;5162679;27;20017;-89
2021/12/28 09:37:11;;;;;;;;;;;16.80;50.90;;;;;;5162627;27;19927;-89
2021/12/28 09:39:36;;;;;;;;;;;16.90;51.00;;;;;;5162329;27;19931;-89
2021/12/28 09:42:03;;;;;;;;;;;17.00;51.10;;;;;;5162470;27;19990;-90
2021/12/28 09:44:29;;;;;;;;;;;17.00;51.10;;;;;;5162378;27;19924;-89
2021/12/28 09:46:55;;;;;;;;;;;17.00;51.10;;;;;;5162334;27;19935;-90
2021/12/28 09:49:21;;;;;;;;;;;17.10;51.20;;;;;;5162315;27;19928;-89
2021/12/28 09:51:46;;;;;;;;;;;17.10;51.30;;;;;;5162088;27;19923;-90
2021/12/28 09:54:12;;;;;;;;;;;17.20;51.30;;;;;;5162250;27;19928;-90
2021/12/28 09:56:38;;;;;;;;;;;17.20;51.40;;;;;;5162046;27;20372;-87
2021/12/28 09:59:04;;;;;;;;;;;17.20;51.40;;;;;;5163031;27;19923;-90
2021/12/28 10:01:30;;;;;;;;;;;17.20;51.70;;;;;;5162984;27;19924;-88
2021/12/28 10:03:57;;;;;;;;;;;17.30;51.50;;;;;;5161247;27;19945;-88
2021/12/28 10:06:25;;;;;;;;;;;17.30;51.50;;;;;;5161090;27;20018;-90
2021/12/28 10:09:09;;;;;;;;;;;17.30;51.60;;;;;;5161762;27;19924;-89
2021/12/28 10:11:39;;;;;;;;;;;17.40;51.60;;;;;;5161940;27;19923;-90
2021/12/28 10:14:22;;;;;;;;;;;17.40;51.70;;;;;;5162239;27;19976;-89
2021/12/28 10:16:52;;;;;;;;;;;17.40;51.60;;;;;;5183757;27;19934;-79
2021/12/28 10:19:36;;;;;;;;;;;17.40;51.70;;;;;;5186103;27;19915;-84
2021/12/28 10:22:22;;;;;;;;;;;17.50;51.70;;;;;;5168970;27;20631;-87
2021/12/28 10:25:14;;;;;;;;;;;17.50;51.70;;;;;;5167320;27;19988;-87
2021/12/28 10:27:41;;;;;;;;;;;17.50;51.80;;;;;;5160172;27;19928;-88
2021/12/28 10:30:15;;;;;;;;;;;17.50;51.80;;;;;;5164822;27;19923;-87
2021/12/28 10:32:42;;;;;;;;;;;17.50;51.80;;;;;;5164984;27;19923;-88
2021/12/28 10:35:09;;;;;;;;;;;17.60;51.90;;;;;;5164666;27;19923;-90
2021/12/28 10:37:37;;;;;;;;;;;17.60;51.90;;;;;;5164916;27;19965;-88
2021/12/28 10:40:04;;;;;;;;;;;17.60;52.00;;;;;;5165063;27;20388;-85
2021/12/28 10:42:37;;;;;;;;;;;17.60;51.90;;;;;;5165121;27;19924;-88
2021/12/28 10:45:03;;;;;;;;;;;17.60;52.00;;;;;;5164194;27;19923;-88
2021/12/28 10:47:29;;;;;;;;;;;17.70;52.00;;;;;;5149090;27;19967;-79
2021/12/28 10:49:55;;;;;;;;;;;17.70;52.10;;;;;;5146441;27;20423;-88
2021/12/28 10:52:23;;;;;;;;;;;17.70;52.10;;;;;;5159585;27;19989;-83
2021/12/28 10:54:49;;;;;;;;;;;17.70;52.00;;;;;;5162332;27;19996;-79
2021/12/28 10:57:14;;;;;;;;;;;17.70;52.20;;;;;;5164152;27;20342;-87
2021/12/28 10:59:40;;;;;;;;;;;17.70;52.20;;;;;;5162198;27;20456;-83
2021/12/28 11:02:06;;;;;;;;;;;17.70;52.10;;;;;;5148062;27;20384;-79
2021/12/28 11:04:33;;;;;;;;;;;17.80;52.20;;;;;;5142997;27;20408;-79
2021/12/28 11:06:59;;;;;;;;;;;17.80;52.30;;;;;;5143887;27;19977;-81
2021/12/28 11:09:26;;;;;;;;;;;17.80;52.40;;;;;;5159816;27;20387;-83
2021/12/28 11:11:52;;;;;;;;;;;17.80;52.30;;;;;;5158134;27;19951;-82
2021/12/28 11:14:19;;;;;;;;;;;17.80;52.30;;;;;;5143143;27;19924;-82
2021/12/28 11:16:48;;;;;;;;;;;17.80;52.30;;;;;;5142673;27;19934;-88
2021/12/28 11:19:21;;;;;;;;;;;17.80;51.90;;;;;;5131440;27;19972;-80
2021/12/28 11:21:51;;;;;;;;;;;17.70;50.70;;;;;;5161305;27;20341;-88
2021/12/28 11:24:17;;;;;;;;;;;17.60;50.30;;;;;;5150032;27;19928;-79
2021/12/28 11:26:43;;;;;;;;;;;17.40;50.20;;;;;;5143383;27;19950;-84
2021/12/28 11:29:09;;;;;;;;;;;17.40;50.10;;;;;;5141622;27;19996;-79
2021/12/28 11:31:34;;;;;;;;;;;17.40;49.60;;;;;;5149613;27;20330;-87
2021/12/28 11:34:05;;;;;;;;;;;17.30;49.40;;;;;;5164114;27;19930;-85
2021/12/28 11:36:32;;;;;;;;;;;17.30;49.50;;;;;;5159833;27;19976;-86
2021/12/28 11:38:59;;;;;;;;;;;17.40;49.70;;;;;;5143487;27;19950;-86
2021/12/28 11:41:25;;;;;;;;;;;17.40;49.90;;;;;;5150335;27;19928;-83
2021/12/28 11:43:51;;;;;;;;;;;17.50;50.10;;;;;;5148144;27;19932;-81
2021/12/28 11:46:17;;;;;;;;;;;17.60;50.20;;;;;;5148302;27;19987;-82
2021/12/28 11:48:43;;;;;;;;;;;17.70;50.20;;;;;;5147980;27;19927;-85
2021/12/28 11:51:08;;;;;;;;;;;17.70;50.30;;;;;;5155372;27;19928;-86
2021/12/28 11:53:37;;;;;;;;;;;17.70;50.20;;;;;;5142738;27;19930;-84
2021/12/28 11:56:03;;;;;;;;;;;17.80;50.40;;;;;;5142227;27;19934;-79
2021/12/28 11:59:04;;;;;;;;;;;17.80;50.10;;;;;;5141816;27;19931;-80
2021/12/28 12:01:35;;;;;;;;;;;17.80;50.00;;;;;;5037691;28;19956;-81
2021/12/28 12:04:01;;;;;;;;;;;17.70;49.90;;;;;;5035450;28;20049;-80
2021/12/28 12:06:45;;;;;;;;;;;17.70;50.10;;;;;;5058334;28;20056;-81
2021/12/28 12:09:10;;;;;;;;;;;17.70;49.90;;;;;;5044110;28;20381;-81
2021/12/28 12:11:56;;;;;;;;;;;17.70;49.90;;;;;;5041244;28;19929;-80
2021/12/28 12:14:21;;;;;;;;;;;17.70;49.80;;;;;;5040316;28;19985;-78
2021/12/28 12:16:47;;;;;;;;;;;17.70;49.90;;;;;;5039100;28;20055;-81
2021/12/28 12:19:32;;;;;;;;;;;17.70;49.70;;;;;;5038268;28;20370;-85
2021/12/28 12:22:16;;;;;;;;;;;17.70;49.80;;;;;;5040309;28;19933;-83
2021/12/28 12:24:51;;;;;;;;;;;17.70;49.70;;;;;;5039302;28;20008;-81
2021/12/28 12:27:35;;;;;;;;;;;17.70;49.70;;;;;;5023338;28;19934;-82
2021/12/28 12:30:01;;;;;;;;;;;17.70;49.60;;;;;;5057735;28;19929;-87
2021/12/28 12:32:44;;;;;;;;;;;17.70;49.60;;;;;;5054221;28;19932;-83
2021/12/28 12:35:29;;;;;;;;;;;17.70;49.50;;;;;;5088966;27;19928;-85
2021/12/28 12:37:54;;;;;;;;;;;17.60;49.40;;;;;;5142384;27;20572;-78
2021/12/28 12:40:20;;;;;;;;;;;17.70;49.50;;;;;;5143018;27;19977;-82
2021/12/28 12:43:04;;;;;;;;;;;17.60;48.80;;;;;;5148658;27;19976;-85
2021/12/28 12:45:48;;;;;;;;;;;17.30;48.30;;;;;;5159421;27;19923;-86
2021/12/28 12:48:39;;;;;;;;;;;17.20;48.40;;;;;;5153566;27;19928;-84
2021/12/28 12:51:22;;;;;;;;;;;17.10;48.40;;;;;;5146524;27;19928;-84
2021/12/28 12:53:53;;;;;;;;;;;17.00;48.40;;;;;;5161120;27;19924;-78
2021/12/28 12:56:24;;;;;;;;;;;17.20;48.70;;;;;;5142897;27;20513;-78
2021/12/28 12:58:50;;;;;;;;;;;17.30;48.90;;;;;;5140695;27;20415;-80
2021/12/28 13:01:22;;;;;;;;;;;17.40;49.20;;;;;;5140645;27;20609;-80
2021/12/28 13:03:47;;;;;;;;;;;17.50;49.30;;;;;;5156303;27;19931;-80
2021/12/28 13:06:13;;;;;;;;;;;17.60;49.30;;;;;;5160423;27;20422;-80
2021/12/28 13:08:38;;;;;;;;;;;17.70;49.30;;;;;;5157715;27;20076;-81
2021/12/28 13:11:05;;;;;;;;;;;17.70;49.40;;;;;;5152088;27;19954;-81
2021/12/28 13:13:31;;;;;;;;;;;17.80;49.40;;;;;;5139153;27;19934;-83
2021/12/28 13:15:56;;;;;;;;;;;17.80;50.00;;;;;;5121742;27;19924;-81
2021/12/28 13:18:22;;;;;;;;;;;17.90;49.50;;;;;;5139967;27;19928;-81
2021/12/28 13:20:49;;;;;;;;;;;17.90;49.60;;;;;;5125760;27;19927;-82
2021/12/28 13:23:14;;;;;;;;;;;18.00;49.70;;;;;;5160990;27;20021;-82
2021/12/28 13:25:42;;;;;;;;;;;18.00;49.60;;;;;;5143035;27;20395;-80
2021/12/28 13:28:08;;;;;;;;;;;17.90;49.50;;;;;;5121157;27;19950;-80
2021/12/28 13:30:36;;;;;;;;;;;18.00;49.70;;;;;;5157555;27;19927;-80
2021/12/28 13:33:03;;;;;;;;;;;18.00;49.70;;;;;;5160638;27;19923;-81
2021/12/28 13:35:32;;;;;;;;;;;18.00;49.70;;;;;;5157805;27;19934;-80
2021/12/28 13:38:12;;;;;;;;;;;18.10;49.80;;;;;;5148328;27;19932;-81
2021/12/28 13:40:38;;;;;;;;;;;18.10;49.80;;;;;;5139708;27;19928;-81
2021/12/28 13:43:13;;;;;;;;;;;18.10;49.70;;;;;;5140399;27;19927;-82
2021/12/28 13:45:42;;;;;;;;;;;18.10;49.80;;;;;;5154470;27;19928;-82
2021/12/28 13:48:28;;;;;;;;;;;18.10;49.80;;;;;;5141308;27;19966;-81
2021/12/28 13:50:57;;;;;;;;;;;18.10;49.80;;;;;;5158141;27;20600;-81
2021/12/28 13:53:27;;;;;;;;;;;18.10;49.80;;;;;;5159682;27;19959;-81
2021/12/28 13:56:00;;;;;;;;;;;18.10;49.90;;;;;;5141283;27;19934;-80
2021/12/28 13:58:26;;;;;;;;;;;18.10;49.90;;;;;;5140198;27;20312;-80
2021/12/28 14:00:53;;;;;;;;;;;18.20;49.90;;;;;;5149699;27;19928;-79
2021/12/28 14:03:21;;;;;;;;;;;18.20;50.00;;;;;;5124916;27;20002;-79
2021/12/28 14:05:48;;;;;;;;;;;18.20;50.20;;;;;;5128869;27;19977;-85
2021/12/28 14:08:15;;;;;;;;;;;18.20;50.10;;;;;;5146198;27;19934;-80
2021/12/28 14:10:41;;;;;;;;;;;18.10;50.20;;;;;;5161613;27;19935;-79
2021/12/28 14:13:14;;;;;;;;;;;18.20;50.00;;;;;;5162989;27;19923;-79
2021/12/28 14:15:46;;;;;;;;;;;18.20;50.00;;;;;;5141200;27;20018;-80
2021/12/28 14:18:25;;;;;;;;;;;18.20;50.00;;;;;;5157670;27;19934;-83
2021/12/28 14:20:51;;;;;;;;;;;18.20;49.80;;;;;;5162945;27;19930;-80